Time;durP1;ratioP1;P1;durP2;ratioP2;P2;SDS_P1;SDS_P2;PMS_P1;PMS_P2;Temp;Humidity;BMP_temperature;BMP_pressure;BME280_temperature;BME280_humidity;BME280_pressure;Samples;Min_cycle;Max_cycle;Signal;HPM_P1;HPM_P2
2023/02/18 00:01:14;;;;;;;57.05;15.75;;;;;;;9.35;100.00;101885.78;5084960;28;20024;-70
2023/02/18 00:03:40;;;;;;;47.80;16.42;;;;;;;9.37;100.00;101877.97;5087585;28;20329;-71
2023/02/18 00:06:29;;;;;;;44.78;18.75;;;;;;;9.41;100.00;101862.41;5090845;28;20043;-71
2023/02/18 00:08:57;;;;;;;43.95;17.25;;;;;;;9.45;100.00;101864.31;5092549;28;20032;-69
2023/02/18 00:11:23;;;;;;;53.33;17.88;;;;;;;9.33;100.00;101863.81;5092503;28;20537;-69
2023/02/18 00:13:54;;;;;;;53.38;19.38;;;;;;;9.48;100.00;101859.97;5092452;28;20028;-69
2023/02/18 00:16:20;;;;;;;54.63;19.05;;;;;;;9.49;100.00;101861.78;5084437;28;20032;-70
2023/02/18 00:18:46;;;;;;;50.50;19.58;;;;;;;9.35;100.00;101864.78;5093358;28;20476;-71
2023/02/18 00:21:11;;;;;;;53.13;19.95;;;;;;;9.39;100.00;101863.19;5088115;28;20016;-70
2023/02/18 00:23:37;;;;;;;57.55;22.27;;;;;;;9.27;100.00;101859.22;5093181;28;20024;-70
2023/02/18 00:26:09;;;;;;;56.03;22.38;;;;;;;9.42;100.00;101855.41;5088520;28;20074;-72
2023/02/18 00:28:35;;;;;;;64.60;22.60;;;;;;;9.40;100.00;101847.47;5090443;28;20095;-70
2023/02/18 00:31:08;;;;;;;60.83;22.42;;;;;;;9.22;100.00;101833.63;5089175;28;20064;-70
2023/02/18 00:33:34;;;;;;;65.90;23.58;;;;;;;9.28;100.00;101840.00;5089178;28;20379;-71
2023/02/18 00:36:05;;;;;;;66.32;22.88;;;;;;;9.30;100.00;101841.81;5083776;28;20111;-70
2023/02/18 00:38:31;;;;;;;61.13;21.88;;;;;;;9.28;100.00;101847.88;5092291;28;20032;-69
2023/02/18 00:40:56;;;;;;;52.60;20.17;;;;;;;9.34;100.00;101844.59;5091559;28;20082;-69
2023/02/18 00:43:21;;;;;;;57.50;20.77;;;;;;;9.44;100.00;101838.88;5091218;28;20467;-69
2023/02/18 00:45:47;;;;;;;59.33;22.00;;;;;;;9.24;100.00;101837.22;5091094;28;20028;-71
2023/02/18 00:48:12;;;;;;;55.70;22.48;;;;;;;9.24;100.00;101831.97;5090802;28;20034;-72
2023/02/18 00:50:37;;;;;;;62.03;22.10;;;;;;;9.32;100.00;101830.53;5089267;28;20074;-70
2023/02/18 00:53:03;;;;;;;60.03;22.63;;;;;;;9.33;100.00;101829.66;5081483;28;20044;-70
2023/02/18 00:55:28;;;;;;;66.55;23.20;;;;;;;9.23;100.00;101824.91;5092007;28;20391;-69
2023/02/18 00:57:53;;;;;;;63.92;22.23;;;;;;;9.28;100.00;101828.63;5089815;28;20024;-71
2023/02/18 01:00:19;;;;;;;55.03;21.15;;;;;;;9.33;100.00;101820.91;5088159;28;20029;-70
2023/02/18 01:02:44;;;;;;;71.55;25.38;;;;;;;9.36;100.00;101824.56;5090969;28;20059;-70
2023/02/18 01:05:10;;;;;;;64.13;23.88;;;;;;;9.43;100.00;101829.19;5089636;28;20044;-70
2023/02/18 01:07:36;;;;;;;57.42;23.80;;;;;;;9.27;100.00;101826.81;5090851;28;20064;-71
2023/02/18 01:10:01;;;;;;;66.50;24.88;;;;;;;9.33;100.00;101816.53;5090976;28;20070;-70
2023/02/18 01:12:27;;;;;;;62.90;24.75;;;;;;;9.32;100.00;101814.75;5089178;28;20024;-70
2023/02/18 01:14:52;;;;;;;67.00;25.70;;;;;;;9.23;100.00;101814.41;5090394;28;20031;-70
2023/02/18 01:17:17;;;;;;;67.90;25.58;;;;;;;9.37;100.00;101815.84;5090059;28;20028;-70
2023/02/18 01:19:43;;;;;;;69.60;25.88;;;;;;;9.31;100.00;101809.47;5091922;28;20036;-71
2023/02/18 01:22:08;;;;;;;66.90;26.27;;;;;;;9.37;100.00;101801.78;5090126;28;20027;-71
2023/02/18 01:24:34;;;;;;;76.85;27.77;;;;;;;9.41;100.00;101803.69;5090889;28;20028;-71
2023/02/18 01:26:59;;;;;;;70.00;26.88;;;;;;;9.37;100.00;101786.94;5090163;28;20033;-71
2023/02/18 01:29:24;;;;;;;70.72;26.35;;;;;;;9.40;100.00;101800.19;5085880;28;20020;-70
2023/02/18 01:31:50;;;;;;;60.97;25.30;;;;;;;9.41;100.00;101801.06;5086528;28;20054;-70
2023/02/18 01:34:15;;;;;;;63.13;25.27;;;;;;;9.40;100.00;101802.81;5085362;28;20100;-68
2023/02/18 01:36:41;;;;;;;66.90;26.13;;;;;;;9.40;100.00;101802.81;5091485;28;20110;-71
2023/02/18 01:39:06;;;;;;;63.88;24.63;;;;;;;9.47;100.00;101796.03;5090023;28;20024;-70
2023/02/18 01:41:32;;;;;;;62.20;24.75;;;;;;;9.34;100.00;101796.44;5089895;28;20016;-70
2023/02/18 01:44:22;;;;;;;55.08;23.20;;;;;;;9.43;100.00;101795.03;5090369;28;20523;-71
2023/02/18 01:46:48;;;;;;;58.22;23.25;;;;;;;9.47;100.00;101780.28;5085586;28;20055;-70
2023/02/18 01:49:34;;;;;;;63.25;22.33;;;;;;;9.43;100.00;101786.25;5082568;28;20085;-70
2023/02/18 01:52:08;;;;;;;55.25;20.90;;;;;;;9.43;100.00;101775.75;5090051;28;20387;-70
2023/02/18 01:54:38;;;;;;;53.20;21.80;;;;;;;9.42;100.00;101773.97;5086389;28;20058;-70
2023/02/18 01:57:36;;;;;;;58.03;20.08;;;;;;;9.29;100.00;101767.34;5089446;28;20046;-71
2023/02/18 02:00:11;;;;;;;48.85;19.60;;;;;;;9.36;100.00;101773.72;5070230;28;20048;-70
2023/02/18 02:02:41;;;;;;;53.97;20.20;;;;;;;9.43;100.00;101771.38;5090767;28;20035;-70
2023/02/18 02:05:07;;;;;;;51.67;19.52;;;;;;;9.24;100.00;101771.56;5089016;28;20532;-70
2023/02/18 02:07:32;;;;;;;58.33;21.70;;;;;;;9.42;100.00;101752.94;5090683;28;20032;-71
2023/02/18 02:09:59;;;;;;;56.67;21.08;;;;;;;9.17;100.00;101745.91;5087150;28;20043;-70
2023/02/18 02:12:27;;;;;;;60.83;21.75;;;;;;;9.26;100.00;101734.03;5088526;28;20515;-70
2023/02/18 02:15:11;;;;;;;60.05;22.08;;;;;;;9.30;100.00;101737.63;5090622;28;20111;-70
2023/02/18 02:17:54;;;;;;;65.40;22.10;;;;;;;9.38;100.00;101724.78;5088409;28;20024;-70
2023/02/18 02:20:47;;;;;;;55.50;21.80;;;;;;;9.32;100.00;101728.09;5089251;28;20106;-70
2023/02/18 02:23:30;;;;;;;66.03;23.45;;;;;;;9.26;100.00;101725.22;5090263;28;20434;-70
2023/02/18 02:26:44;;;;;;;69.75;24.40;;;;;;;9.28;100.00;101718.31;5090335;28;20038;-70
2023/02/18 02:29:47;;;;;;;61.05;24.88;;;;;;;9.33;100.00;101700.06;5085299;28;20028;-70
2023/02/18 02:32:37;;;;;;;69.60;23.63;;;;;;;9.36;100.00;101690.59;5078292;28;20154;-70
2023/02/18 02:35:25;;;;;;;56.70;23.00;;;;;;;9.28;100.00;101682.44;5083766;28;20025;-70
2023/02/18 02:38:03;;;;;;;61.40;23.50;;;;;;;9.32;100.00;101667.69;5084787;28;20387;-70
2023/02/18 02:40:34;;;;;;;58.33;22.70;;;;;;;9.22;100.00;101665.56;5088744;28;20058;-70
2023/02/18 02:43:24;;;;;;;57.30;22.58;;;;;;;9.23;100.00;101656.84;5085411;28;20020;-70
2023/02/18 02:46:07;;;;;;;59.22;21.73;;;;;;;9.34;100.00;101650.22;5081221;28;20024;-70
2023/02/18 02:48:54;;;;;;;51.43;20.90;;;;;;;9.26;100.00;101651.69;5088092;28;20038;-69
2023/02/18 02:52:07;;;;;;;55.97;20.77;;;;;;;9.23;100.00;101654.22;5086678;28;20384;-70
2023/02/18 02:54:32;;;;;;;52.70;19.25;;;;;;;9.20;100.00;101647.13;5035261;28;20439;-69
2023/02/18 02:57:16;;;;;;;44.92;16.90;;;;;;;9.10;100.00;101640.66;5085452;28;20020;-68
2023/02/18 02:59:46;;;;;;;44.03;16.27;;;;;;;9.09;100.00;101649.38;5078441;28;20024;-70
2023/02/18 03:02:51;;;;;;;41.67;13.98;;;;;;;8.91;100.00;101641.75;5087447;28;20077;-70
2023/02/18 03:05:54;;;;;;;29.92;12.05;;;;;;;8.96;100.00;101641.88;5059072;28;20059;-69
2023/02/18 03:08:44;;;;;;;32.75;11.80;;;;;;;9.00;100.00;101642.91;5043850;28;20099;-70
2023/02/18 03:11:13;;;;;;;28.50;10.90;;;;;;;8.91;100.00;101638.19;5075100;28;20020;-71
2023/02/18 03:13:55;;;;;;;24.65;9.43;;;;;;;8.84;100.00;101637.09;5074977;28;20536;-69
2023/02/18 03:16:28;;;;;;;18.55;8.13;;;;;;;9.00;100.00;101633.28;5076591;28;20520;-71
2023/02/18 03:19:26;;;;;;;19.08;7.70;;;;;;;9.04;100.00;101622.06;5080400;28;20550;-71
2023/02/18 03:21:59;;;;;;;18.40;7.75;;;;;;;9.00;100.00;101620.16;5076482;28;20059;-71
2023/02/18 03:24:40;;;;;;;15.52;6.75;;;;;;;9.06;100.00;101607.25;5085555;28;20028;-70
2023/02/18 03:27:12;;;;;;;19.35;7.88;;;;;;;9.02;100.00;101597.50;5088872;28;20028;-72
2023/02/18 03:29:39;;;;;;;19.92;7.57;;;;;;;8.88;100.00;101590.84;5090930;28;20035;-73
2023/02/18 03:32:09;;;;;;;24.75;8.10;;;;;;;8.89;100.00;101595.28;5088821;28;20114;-70
2023/02/18 03:34:39;;;;;;;20.08;8.55;;;;;;;8.98;100.00;101589.44;5088499;28;20444;-72
2023/02/18 03:37:06;;;;;;;19.80;8.90;;;;;;;8.97;100.00;101585.94;5087704;28;20020;-71
2023/02/18 03:39:34;;;;;;;25.08;9.45;;;;;;;8.94;100.00;101580.59;5091198;28;20089;-72
2023/02/18 03:41:59;;;;;;;25.45;9.63;;;;;;;8.86;100.00;101579.44;5092859;28;20077;-72
2023/02/18 03:44:25;;;;;;;26.25;10.38;;;;;;;8.98;100.00;101574.59;5091340;28;20035;-71
2023/02/18 03:46:51;;;;;;;25.67;10.25;;;;;;;8.98;100.00;101571.97;5091495;28;20016;-70
2023/02/18 03:49:17;;;;;;;29.83;11.60;;;;;;;8.91;100.00;101560.38;5083247;28;20027;-73
2023/02/18 03:51:42;;;;;;;25.42;11.32;;;;;;;8.94;100.00;101575.34;5090682;28;20024;-70
2023/02/18 03:54:09;;;;;;;26.38;10.90;;;;;;;9.03;100.00;101562.50;5080502;28;20032;-70
2023/02/18 03:56:35;;;;;;;29.30;12.45;;;;;;;9.12;100.00;101564.56;5082122;28;20356;-71
2023/02/18 03:59:02;;;;;;;27.23;11.75;;;;;;;9.22;100.00;101571.91;5093214;28;20028;-70
2023/02/18 04:01:27;;;;;;;27.70;12.88;;;;;;;9.29;100.00;101567.75;5090513;28;20410;-72
2023/02/18 04:03:54;;;;;;;29.67;13.30;;;;;;;9.21;100.00;101563.97;5091897;28;20030;-72
2023/02/18 04:06:20;;;;;;;38.17;14.48;;;;;;;9.30;100.00;101558.16;5087728;28;20049;-71
2023/02/18 04:08:46;;;;;;;40.13;14.82;;;;;;;9.12;100.00;101559.31;5088335;28;20035;-71
2023/02/18 04:11:11;;;;;;;44.20;18.20;;;;;;;9.27;100.00;101561.56;5091352;28;20074;-71
2023/02/18 04:13:36;;;;;;;34.05;15.52;;;;;;;9.15;100.00;101546.28;5092124;28;20036;-71
2023/02/18 04:16:02;;;;;;;45.90;17.15;;;;;;;9.39;100.00;101548.84;5091673;28;20106;-71
2023/02/18 04:18:27;;;;;;;45.72;19.38;;;;;;;9.28;100.00;101542.34;5087253;28;20050;-72
2023/02/18 04:20:53;;;;;;;42.95;19.25;;;;;;;9.38;100.00;101540.91;5093410;28;20035;-71
2023/02/18 04:23:18;;;;;;;44.95;18.52;;;;;;;9.26;100.00;101544.03;5091047;28;20024;-73
2023/02/18 04:25:43;;;;;;;49.03;19.40;;;;;;;9.35;100.00;101540.81;5090885;28;20431;-71
2023/02/18 04:28:12;;;;;;;42.47;17.20;;;;;;;9.41;100.00;101541.91;5090562;28;20089;-71
2023/02/18 04:30:38;;;;;;;43.92;16.90;;;;;;;9.35;100.00;101538.19;5091533;28;20038;-72
2023/02/18 04:33:03;;;;;;;39.28;17.45;;;;;;;9.39;100.00;101538.34;5089310;28;20484;-72
2023/02/18 04:35:28;;;;;;;46.95;17.80;;;;;;;9.27;100.00;101517.81;5087990;28;20479;-72
2023/02/18 04:37:54;;;;;;;49.78;18.50;;;;;;;9.27;100.00;101533.56;5090260;28;20032;-72
2023/02/18 04:40:19;;;;;;;42.42;16.45;;;;;;;9.28;100.00;101509.09;5086095;28;20511;-72
2023/02/18 04:42:44;;;;;;;47.58;17.27;;;;;;;9.37;100.00;101508.50;5082511;28;20047;-72
2023/02/18 04:45:10;;;;;;;42.30;17.15;;;;;;;9.26;100.00;101504.63;5088766;28;20048;-73
2023/02/18 04:47:35;;;;;;;47.88;17.92;;;;;;;9.27;100.00;101511.66;5085119;28;20106;-71
2023/02/18 04:50:00;;;;;;;50.60;19.65;;;;;;;9.29;100.00;101499.47;5090074;28;20090;-72
2023/02/18 04:52:26;;;;;;;54.13;19.30;;;;;;;9.29;100.00;101499.47;5090966;28;20031;-72
2023/02/18 04:54:51;;;;;;;53.10;19.67;;;;;;;9.29;100.00;101496.84;5091687;28;20103;-71
2023/02/18 04:57:17;;;;;;;43.22;19.48;;;;;;;9.26;100.00;101499.38;5086421;28;20036;-71
2023/02/18 04:59:42;;;;;;;38.28;17.55;;;;;;;9.20;100.00;101499.19;5092126;28;20099;-73
2023/02/18 05:02:08;;;;;;;49.88;19.80;;;;;;;9.30;100.00;101506.50;5086464;28;20024;-72
2023/02/18 05:04:33;;;;;;;42.17;18.08;;;;;;;9.32;100.00;101504.84;5082497;28;20028;-70
2023/02/18 05:06:59;;;;;;;45.60;18.33;;;;;;;9.28;100.00;101509.09;5083106;28;20030;-71
2023/02/18 05:09:24;;;;;;;47.65;18.52;;;;;;;9.31;100.00;101507.44;5089711;28;20020;-72
2023/02/18 05:11:50;;;;;;;43.50;18.00;;;;;;;9.38;100.00;101496.25;5090688;28;20361;-72
2023/02/18 05:14:16;;;;;;;41.35;18.65;;;;;;;9.39;100.00;101501.56;5089554;28;20024;-71
2023/02/18 05:16:41;;;;;;;37.65;17.05;;;;;;;9.35;100.00;101498.78;5091168;28;20032;-73
2023/02/18 05:19:07;;;;;;;41.67;16.50;;;;;;;9.37;100.00;101497.09;5091209;28;20031;-72
2023/02/18 05:21:32;;;;;;;38.83;16.65;;;;;;;9.48;100.00;101476.41;5090668;28;20024;-72
2023/02/18 05:23:58;;;;;;;30.75;14.52;;;;;;;9.30;100.00;101479.38;5089377;28;20107;-72
2023/02/18 05:26:23;;;;;;;37.33;15.40;;;;;;;9.41;100.00;101473.63;5090319;28;20024;-72
2023/02/18 05:28:49;;;;;;;33.53;14.95;;;;;;;9.44;100.00;101478.97;5085555;28;20054;-72
2023/02/18 05:31:14;;;;;;;25.63;12.68;;;;;;;9.39;100.00;101475.28;5086343;28;20119;-73
2023/02/18 05:33:40;;;;;;;43.55;14.23;;;;;;;9.44;100.00;101468.47;5089957;28;20020;-71
2023/02/18 05:36:05;;;;;;;33.30;14.02;;;;;;;9.44;100.00;101481.59;5083501;28;20061;-71
2023/02/18 05:38:31;;;;;;;31.17;14.10;;;;;;;9.52;100.00;101467.78;5090578;28;20032;-73
2023/02/18 05:40:56;;;;;;;35.35;14.90;;;;;;;9.57;100.00;101464.44;5091500;28;20065;-72
2023/02/18 05:43:21;;;;;;;32.15;13.77;;;;;;;9.51;100.00;101459.03;5090958;28;20452;-71
2023/02/18 05:45:47;;;;;;;29.17;14.82;;;;;;;9.46;100.00;101458.00;5078040;28;20472;-72
2023/02/18 05:48:12;;;;;;;35.85;14.93;;;;;;;9.53;100.00;101461.69;5088788;28;20028;-71
2023/02/18 05:50:38;;;;;;;36.63;15.77;;;;;;;9.61;100.00;101461.06;5085714;28;20084;-72
2023/02/18 05:53:05;;;;;;;33.10;15.27;;;;;;;9.64;100.00;101460.28;5089233;28;20529;-72
2023/02/18 05:55:31;;;;;;;32.13;14.00;;;;;;;9.60;100.00;101463.66;5091129;28;20030;-70
2023/02/18 05:57:57;;;;;;;28.38;13.38;;;;;;;9.60;100.00;101484.69;5089736;28;20379;-71
2023/02/18 06:00:22;;;;;;;24.02;13.05;;;;;;;9.66;100.00;101463.84;5082324;28;20131;-72
2023/02/18 06:02:48;;;;;;;30.80;12.65;;;;;;;9.60;100.00;101453.16;5086776;28;20095;-73
2023/02/18 06:05:13;;;;;;;28.95;12.63;;;;;;;9.56;100.00;101461.78;5091287;28;20097;-71
2023/02/18 06:07:39;;;;;;;37.08;14.88;;;;;;;9.55;100.00;101442.50;5086325;28;20023;-72
2023/02/18 06:10:05;;;;;;;32.28;13.43;;;;;;;9.63;100.00;101466.41;5090080;28;20027;-72
2023/02/18 06:12:30;;;;;;;37.42;13.45;;;;;;;9.46;100.00;101463.25;5090561;28;20020;-70
2023/02/18 06:14:56;;;;;;;35.25;13.23;;;;;;;9.45;100.00;101465.00;5091523;28;20119;-71
2023/02/18 06:17:21;;;;;;;34.03;13.35;;;;;;;9.50;100.00;101451.97;5088659;28;20031;-72
2023/02/18 06:19:47;;;;;;;35.42;12.38;;;;;;;9.37;100.00;101453.34;5091987;28;20024;-71
2023/02/18 06:22:12;;;;;;;32.97;12.23;;;;;;;9.53;100.00;101445.94;5085935;28;20074;-73
2023/02/18 06:24:38;;;;;;;35.55;12.32;;;;;;;9.43;100.00;101447.41;5088470;28;20514;-72
2023/02/18 06:27:04;;;;;;;41.97;11.45;;;;;;;9.37;100.00;101455.97;5091159;28;20024;-72
2023/02/18 06:29:30;;;;;;;40.25;11.75;;;;;;;9.43;100.00;101456.16;5086804;28;20074;-72
2023/02/18 06:31:56;;;;;;;35.35;11.23;;;;;;;9.43;100.00;101450.91;5080674;28;20027;-71
2023/02/18 06:34:21;;;;;;;35.22;10.90;;;;;;;9.40;100.00;101457.78;5086786;28;20514;-72
2023/02/18 06:36:47;;;;;;;36.75;11.07;;;;;;;9.48;100.00;101437.91;5088859;28;20024;-72
2023/02/18 06:39:12;;;;;;;42.20;11.65;;;;;;;9.36;100.00;101454.19;5088873;28;20035;-71
2023/02/18 06:41:37;;;;;;;35.78;11.13;;;;;;;9.41;100.00;101452.59;5084455;28;20047;-71
2023/02/18 06:44:03;;;;;;;39.35;11.60;;;;;;;9.37;100.00;101463.88;5084467;28;20032;-72
2023/02/18 06:46:28;;;;;;;43.60;13.07;;;;;;;9.35;100.00;101444.53;5087807;28;20031;-72
2023/02/18 06:48:53;;;;;;;40.13;11.18;;;;;;;9.40;100.00;101461.31;5089858;28;20035;-72
2023/02/18 06:51:19;;;;;;;32.22;9.15;;;;;;;9.41;100.00;101452.59;5087686;28;20028;-71
2023/02/18 06:53:45;;;;;;;32.50;8.05;;;;;;;9.39;100.00;101454.28;5084769;28;20028;-71
2023/02/18 06:56:10;;;;;;;32.58;8.73;;;;;;;9.39;100.00;101446.41;5090471;28;20024;-70
2023/02/18 06:58:36;;;;;;;33.72;7.25;;;;;;;9.36;100.00;101448.03;5094664;28;20380;-72
2023/02/18 07:01:02;;;;;;;26.08;8.15;;;;;;;9.43;100.00;101450.03;5089949;28;20025;-71
2023/02/18 07:03:27;;;;;;;36.00;6.30;;;;;;;9.41;100.00;101452.59;5090512;28;20412;-72
2023/02/18 07:05:52;;;;;;;29.98;5.57;;;;;;;9.37;100.00;101455.97;5076076;28;20614;-73
2023/02/18 07:08:18;;;;;;;24.08;4.45;;;;;;;9.37;100.00;101444.56;5083594;28;20024;-71
2023/02/18 07:10:43;;;;;;;40.40;7.15;;;;;;;9.30;100.00;101442.59;5093837;28;20403;-71
2023/02/18 07:13:09;;;;;;;42.95;5.88;;;;;;;9.30;100.00;101438.22;5083126;28;20028;-71
2023/02/18 07:15:34;;;;;;;20.45;3.88;;;;;;;9.22;100.00;101437.97;5085502;28;20043;-70
2023/02/18 07:18:00;;;;;;;26.80;4.60;;;;;;;9.23;100.00;101441.50;5081047;28;20028;-71
2023/02/18 07:20:26;;;;;;;28.92;4.43;;;;;;;9.24;100.00;101443.31;5080171;28;20435;-72
2023/02/18 07:22:52;;;;;;;23.73;3.20;;;;;;;9.22;100.00;101445.84;5066211;28;20024;-72
2023/02/18 07:25:18;;;;;;;27.27;4.22;;;;;;;9.25;100.00;101442.44;5075877;28;20586;-71
2023/02/18 07:27:44;;;;;;;25.27;4.65;;;;;;;9.41;100.00;101444.72;5089566;28;20024;-71
2023/02/18 07:30:10;;;;;;;35.10;4.15;;;;;;;9.34;100.00;101445.34;5094406;28;20353;-71
2023/02/18 07:32:35;;;;;;;30.95;3.80;;;;;;;9.25;100.00;101445.97;5087173;28;20024;-70
2023/02/18 07:35:02;;;;;;;34.17;7.68;;;;;;;9.25;100.00;101432.84;5090946;28;20487;-70
2023/02/18 07:37:27;;;;;;;20.65;4.00;;;;;;;9.30;100.00;101442.59;5089200;28;20031;-73
2023/02/18 07:39:52;;;;;;;28.58;4.13;;;;;;;9.24;100.00;101438.06;5084429;28;20024;-71
2023/02/18 07:42:18;;;;;;;29.13;5.38;;;;;;;9.14;100.00;101444.72;5082666;28;20061;-71
2023/02/18 07:44:43;;;;;;;26.88;3.55;;;;;;;9.15;100.00;101436.00;5094825;28;20031;-71
2023/02/18 07:47:13;;;;;;;22.27;3.40;;;;;;;9.32;100.00;101457.56;5091174;28;20035;-72
2023/02/18 07:49:38;;;;;;;19.92;3.15;;;;;;;9.23;100.00;101458.16;5085614;28;20024;-71
2023/02/18 07:52:03;;;;;;;23.35;3.55;;;;;;;9.19;100.00;101451.00;5081744;28;20031;-72
2023/02/18 07:54:29;;;;;;;27.65;3.08;;;;;;;9.31;100.00;101439.13;5073000;28;20048;-72
2023/02/18 07:56:54;;;;;;;19.83;3.63;;;;;;;9.09;100.00;101456.84;5083032;28;20113;-72
2023/02/18 07:59:20;;;;;;;31.70;4.05;;;;;;;9.08;100.00;101460.28;5082820;28;20035;-71
2023/02/18 08:01:45;;;;;;;26.67;3.15;;;;;;;9.20;100.00;101462.44;5080463;28;21735;-73
2023/02/18 08:04:11;;;;;;;22.02;3.53;;;;;;;9.19;100.00;101447.50;5088025;28;20365;-75
2023/02/18 08:06:42;;;;;;;21.52;3.85;;;;;;;9.14;100.00;101483.22;5101703;28;20056;-72
2023/02/18 08:09:08;;;;;;;33.33;4.10;;;;;;;9.23;100.00;101457.28;5088757;28;20106;-73
2023/02/18 08:11:34;;;;;;;29.25;4.25;;;;;;;9.15;100.00;101453.50;5095142;28;20131;-72
2023/02/18 08:13:59;;;;;;;18.83;3.38;;;;;;;9.17;100.00;101446.56;5077548;28;20073;-72
2023/02/18 08:16:25;;;;;;;18.42;3.17;;;;;;;9.14;100.00;101446.47;5095462;28;20467;-73
2023/02/18 08:18:51;;;;;;;20.95;3.78;;;;;;;9.10;100.00;101451.63;5107503;28;20459;-73
2023/02/18 08:21:18;;;;;;;22.80;3.40;;;;;;;9.02;100.00;101450.50;5105145;28;20383;-74
2023/02/18 08:23:44;;;;;;;31.38;4.18;;;;;;;8.94;100.00;101449.34;5092985;28;20456;-74
2023/02/18 08:26:10;;;;;;;31.27;4.80;;;;;;;8.98;100.00;101445.97;5099157;28;20054;-73
2023/02/18 08:28:35;;;;;;;23.80;3.55;;;;;;;8.75;100.00;101439.97;5095649;28;20028;-74
2023/02/18 08:31:01;;;;;;;22.70;5.13;;;;;;;8.82;100.00;101459.41;5092109;28;20027;-73
2023/02/18 08:33:27;;;;;;;24.50;3.72;;;;;;;8.81;100.00;101448.03;5089640;28;20447;-73
2023/02/18 08:35:53;;;;;;;27.13;4.93;;;;;;;8.96;100.00;101452.91;5076468;28;20020;-73
2023/02/18 08:38:20;;;;;;;29.42;3.42;;;;;;;8.99;100.00;101455.63;5076088;28;20082;-73
2023/02/18 08:40:46;;;;;;;30.55;4.13;;;;;;;8.96;100.00;101442.41;5079834;28;20036;-73
2023/02/18 08:43:12;;;;;;;30.50;4.13;;;;;;;9.00;100.00;101452.16;5092352;28;20027;-73
2023/02/18 08:45:39;;;;;;;39.33;4.20;;;;;;;9.21;100.00;101453.69;5091127;28;20383;-74
2023/02/18 08:48:07;;;;;;;31.30;3.97;;;;;;;9.16;100.00;101455.31;5072585;28;20024;-72
2023/02/18 08:50:33;;;;;;;21.67;3.67;;;;;;;9.13;100.00;101465.69;5091673;28;20562;-73
2023/02/18 08:53:02;;;;;;;28.23;4.63;;;;;;;9.13;100.00;101470.94;5091437;28;20016;-72
2023/02/18 08:55:32;;;;;;;29.77;2.88;;;;;;;9.20;100.00;101472.94;5085103;28;20391;-72
2023/02/18 08:57:58;;;;;;;15.38;3.47;;;;;;;9.21;100.00;101469.44;5088762;28;20463;-73
2023/02/18 09:00:24;;;;;;;25.75;4.50;;;;;;;9.21;100.00;101498.31;5089606;28;20053;-75
2023/02/18 09:02:49;;;;;;;25.95;3.92;;;;;;;9.26;100.00;101495.03;5090517;28;20024;-74
2023/02/18 09:05:15;;;;;;;27.27;3.92;;;;;;;9.26;100.00;101489.78;5090673;28;20042;-73
2023/02/18 09:07:40;;;;;;;26.58;4.05;;;;;;;9.27;100.00;101488.03;5091525;28;20032;-74
2023/02/18 09:10:06;;;;;;;41.40;6.00;;;;;;;9.33;100.00;101482.97;5090011;28;20115;-73
2023/02/18 09:12:31;;;;;;;20.33;3.70;;;;;;;9.22;100.00;101498.38;5090939;28;20483;-73
2023/02/18 09:14:57;;;;;;;27.92;3.85;;;;;;;9.48;100.00;101484.31;5086166;28;20032;-71
2023/02/18 09:17:23;;;;;;;23.35;3.22;;;;;;;9.41;100.00;101496.34;5096611;28;20106;-74
2023/02/18 09:19:49;;;;;;;21.75;2.95;;;;;;;9.44;100.00;101494.72;5078334;28;20024;-73
2023/02/18 09:22:14;;;;;;;22.05;3.95;;;;;;;9.51;100.00;101494.91;5093155;28;20456;-71
2023/02/18 09:24:40;;;;;;;27.77;4.75;;;;;;;9.51;100.00;101513.28;5077242;28;20107;-74
2023/02/18 09:27:06;;;;;;;21.17;3.17;;;;;;;9.66;100.00;101500.66;5090835;28;20059;-71
2023/02/18 09:29:36;;;;;;;20.77;3.90;;;;;;;9.56;100.00;101503.81;5090049;28;20542;-70
2023/02/18 09:32:03;;;;;;;20.55;2.60;;;;;;;9.65;100.00;101509.38;5106684;28;20035;-71
2023/02/18 09:34:30;;;;;;;25.95;3.78;;;;;;;9.64;100.00;101523.34;5089813;28;20399;-70
2023/02/18 09:36:55;;;;;;;21.70;3.42;;;;;;;9.63;100.00;101513.69;5087017;28;20551;-71
2023/02/18 09:39:20;;;;;;;24.17;3.40;;;;;;;9.69;100.00;101484.97;5088993;28;20111;-72
2023/02/18 09:41:48;;;;;;;24.52;2.67;;;;;;;9.66;100.00;101490.13;5088199;28;20024;-71
2023/02/18 09:44:20;;;;;;;27.77;3.67;;;;;;;9.71;100.00;101474.50;5081891;28;20491;-72
2023/02/18 09:46:54;;;;;;;33.55;4.03;;;;;;;9.61;100.00;101481.22;5075567;28;20483;-76
2023/02/18 09:49:24;;;;;;;21.88;2.95;;;;;;;9.56;100.00;101488.06;5075977;28;20032;-72
2023/02/18 09:51:49;;;;;;;19.08;3.42;;;;;;;9.67;100.00;101481.41;5078289;28;20032;-71
2023/02/18 09:54:18;;;;;;;20.08;3.50;;;;;;;9.76;100.00;101486.94;5076005;28;20042;-71
2023/02/18 09:56:44;;;;;;;24.88;3.45;;;;;;;9.90;100.00;101502.22;5081237;28;20380;-71
2023/02/18 09:59:17;;;;;;;17.85;2.92;;;;;;;9.77;100.00;101496.59;5084924;28;20024;-72
2023/02/18 10:01:44;;;;;;;26.63;5.03;;;;;;;9.61;100.00;101470.72;5080036;28;20021;-72
2023/02/18 10:04:23;;;;;;;20.05;3.17;;;;;;;9.64;100.00;101427.88;5089044;28;20021;-72
2023/02/18 10:06:52;;;;;;;15.60;2.72;;;;;;;9.70;100.00;101449.97;5083747;28;20052;-72
2023/02/18 10:09:27;;;;;;;23.67;3.42;;;;;;;9.66;100.00;101427.06;5083387;28;20081;-72
2023/02/18 10:11:59;;;;;;;24.77;2.63;;;;;;;9.61;100.00;101426.91;5087457;28;20042;-72
2023/02/18 10:14:25;;;;;;;17.38;2.70;;;;;;;9.65;100.00;101435.78;5075484;28;20025;-72
2023/02/18 10:16:51;;;;;;;17.05;3.10;;;;;;;9.59;100.00;101396.19;5073753;28;20028;-71
2023/02/18 10:19:28;;;;;;;22.02;3.22;;;;;;;9.61;100.00;101397.13;5080955;28;20032;-72
2023/02/18 10:21:55;;;;;;;34.15;3.50;;;;;;;9.14;100.00;101263.56;5081713;28;20102;-72
2023/02/18 10:24:36;;;;;;;13.75;2.30;;;;;;;9.08;100.00;101252.91;5089284;28;20020;-72
2023/02/18 10:27:05;;;;;;;21.48;2.83;;;;;;;9.13;100.00;101239.88;5081663;28;20468;-71
2023/02/18 10:29:31;;;;;;;12.80;2.58;;;;;;;9.27;100.00;101249.06;5079263;28;20031;-72
2023/02/18 10:32:17;;;;;;;19.75;2.53;;;;;;;9.60;100.00;101290.25;5078050;28;20032;-71
2023/02/18 10:35:12;;;;;;;19.90;3.90;;;;;;;9.73;100.00;101331.78;5088664;28;20468;-71
2023/02/18 10:37:54;;;;;;;14.13;2.92;;;;;;;9.71;100.00;101320.34;5080096;28;20403;-72
2023/02/18 10:40:57;;;;;;;15.05;2.67;;;;;;;9.76;100.00;101309.97;5078530;28;20043;-71
2023/02/18 10:43:34;;;;;;;17.98;2.38;;;;;;;9.63;100.00;101292.97;5085897;28;20039;-73
2023/02/18 10:46:20;;;;;;;16.63;2.58;;;;;;;9.71;100.00;101293.16;5083594;28;20091;-71
2023/02/18 10:49:17;;;;;;;20.13;3.10;;;;;;;9.63;100.00;101300.88;5092150;28;20024;-72
2023/02/18 10:51:49;;;;;;;12.98;2.17;;;;;;;-146.27;100.00;48351.78;5088766;28;20128;-71
2023/02/18 10:54:14;;;;;;;19.90;3.05;;;;;;;-146.27;100.00;48353.78;5081275;28;21621;-70
2023/02/18 10:56:46;;;;;;;13.63;2.33;;;;;;;-146.27;100.00;48323.91;5083274;28;20016;-71
2023/02/18 10:59:13;;;;;;;16.85;3.13;;;;;;;-146.27;100.00;48325.91;5074433;28;20024;-71
2023/02/18 11:01:39;;;;;;;16.38;2.20;;;;;;;-146.27;100.00;48341.81;5086109;28;20020;-71
2023/02/18 11:04:20;;;;;;;12.35;2.00;;;;;;;-146.27;100.00;48359.75;5093145;28;20032;-71
2023/02/18 11:06:50;;;;;;;15.23;2.08;;;;;;;-146.27;100.00;48343.81;5091322;28;20044;-72
2023/02/18 11:09:36;;;;;;;11.82;1.60;;;;;;;-146.27;100.00;48319.91;5091798;28;20035;-73
2023/02/18 11:12:05;;;;;;;13.70;2.72;;;;;;;-146.27;100.00;48341.81;5092844;28;20055;-73
2023/02/18 11:14:40;;;;;;;18.60;2.65;;;;;;;-146.27;100.00;48315.94;5090610;28;20162;-73
2023/02/18 11:17:19;;;;;;;14.63;2.13;;;;;;;-146.27;100.00;48367.72;5089446;28;20036;-71
2023/02/18 11:19:57;;;;;;;15.90;2.80;;;;;;;-146.27;100.00;48333.88;5090402;28;20123;-72
2023/02/18 11:22:35;;;;;;;12.00;2.28;;;;;;;-146.27;100.00;48292.03;5090026;28;20051;-72